Time;durP1;ratioP1;P1;durP2;ratioP2;P2;SDS_P1;SDS_P2;PMS_P1;PMS_P2;Temp;Humidity;BMP_temperature;BMP_pressure;BME280_temperature;BME280_humidity;BME280_pressure;Samples;Min_cycle;Max_cycle;Signal;HPM_P1;HPM_P2
2023/03/16 00:01:38;;;;;;;;;;;;;;;3.19;100.00;100517.38;5085429;28;19928;-61
2023/03/16 00:04:04;;;;;;;;;;;;;;;3.15;100.00;100518.22;5091520;28;19960;-61
2023/03/16 00:06:29;;;;;;;;;;;;;;;3.06;100.00;100526.06;5090460;28;19939;-61
2023/03/16 00:08:57;;;;;;;;;;;;;;;2.98;100.00;100519.91;5090666;28;19946;-61
2023/03/16 00:11:23;;;;;;;;;;;;;;;2.91;100.00;100520.72;5090737;28;20470;-61
2023/03/16 00:13:49;;;;;;;;;;;;;;;2.82;100.00;100518.91;5091927;28;19935;-61
2023/03/16 00:16:15;;;;;;;;;;;;;;;2.81;100.00;100524.16;5090986;28;20385;-61
2023/03/16 00:18:41;;;;;;;;;;;;;;;2.84;100.00;100516.28;5078485;28;19921;-61
2023/03/16 00:21:06;;;;;;;;;;;;;;;2.81;100.00;100514.53;5071829;28;19932;-61
2023/03/16 00:23:34;;;;;;;;;;;;;;;2.82;100.00;100523.31;5075822;28;20020;-61
2023/03/16 00:26:01;;;;;;;;;;;;;;;2.81;100.00;100527.66;5090812;28;19927;-61
2023/03/16 00:28:27;;;;;;;;;;;;;;;2.72;100.00;100523.22;5091459;28;19936;-61
2023/03/16 00:30:57;;;;;;;;;;;;;;;2.69;100.00;100523.22;5073775;28;19937;-60
2023/03/16 00:33:23;;;;;;;;;;;;;;;2.69;100.00;100523.22;5089706;28;20427;-61
2023/03/16 00:35:48;;;;;;;;;;;;;;;2.69;100.00;100527.56;5092017;28;20018;-61
2023/03/16 00:38:14;;;;;;;;;;;;;;;2.62;100.00;100521.41;5091772;28;19932;-61
2023/03/16 00:40:39;;;;;;;;;;;;;;;2.58;100.00;100524.91;5090254;28;19941;-61
2023/03/16 00:43:04;;;;;;;;;;;;;;;2.59;100.00;100525.75;5091179;28;19969;-61
2023/03/16 00:45:31;;;;;;;;;;;;;;;2.60;100.00;100509.16;5091202;28;19949;-61
2023/03/16 00:47:56;;;;;;;;;;;;;;;2.56;100.00;100507.34;5090417;28;19936;-61
2023/03/16 00:50:21;;;;;;;;;;;;;;;2.58;100.00;100503.88;5091131;28;20336;-61
2023/03/16 00:52:47;;;;;;;;;;;;;;;2.63;100.00;100510.06;5090413;28;20023;-61
2023/03/16 00:55:13;;;;;;;;;;;;;;;2.65;100.00;100510.06;5090887;28;19924;-61
2023/03/16 00:57:38;;;;;;;;;;;;;;;2.65;100.00;100505.66;5080769;28;19933;-61
2023/03/16 01:00:11;;;;;;;;;;;;;;;2.68;100.00;100502.19;5082526;28;19952;-61
2023/03/16 01:02:37;;;;;;;;;;;;;;;2.61;100.00;100503.00;5069750;28;20362;-61
2023/03/16 01:05:04;;;;;;;;;;;;;;;2.57;100.00;100502.13;5088395;28;19964;-61
2023/03/16 01:07:30;;;;;;;;;;;;;;;2.58;100.00;100503.88;5090822;28;20394;-61
2023/03/16 01:09:55;;;;;;;;;;;;;;;2.62;100.00;100505.66;5089203;28;19938;-61
2023/03/16 01:12:20;;;;;;;;;;;;;;;2.61;100.00;100508.28;5089947;28;19944;-61
2023/03/16 01:14:46;;;;;;;;;;;;;;;2.55;100.00;100511.72;5089300;28;20027;-61
2023/03/16 01:17:13;;;;;;;;;;;;;;;2.49;100.00;100503.81;5090696;28;19967;-61
2023/03/16 01:19:40;;;;;;;;;;;;;;;2.45;100.00;100499.41;5090725;28;19943;-61
2023/03/16 01:22:06;;;;;;;;;;;;;;;2.40;100.00;100498.50;5089623;28;19936;-61
2023/03/16 01:24:31;;;;;;;;;;;;;;;2.34;100.00;100498.44;5082028;28;19953;-61
2023/03/16 01:26:57;;;;;;;;;;;;;;;2.31;100.00;100489.66;5089648;28;19931;-61
2023/03/16 01:29:22;;;;;;;;;;;;;;;2.28;100.00;100492.25;5090886;28;19973;-61
2023/03/16 01:31:49;;;;;;;;;;;;;;;2.30;100.00;100494.06;5072340;28;20287;-61
2023/03/16 01:34:16;;;;;;;;;;;;;;;2.32;100.00;100487.03;5085905;28;19924;-61
2023/03/16 01:36:45;;;;;;;;;;;;;;;2.26;100.00;100483.50;5071042;28;19937;-61
2023/03/16 01:39:11;;;;;;;;;;;;;;;2.20;100.00;100478.22;5071951;28;19970;-61
2023/03/16 01:41:36;;;;;;;;;;;;;;;2.20;100.00;100484.34;5069863;28;19945;-61
2023/03/16 01:44:02;;;;;;;;;;;;;;;2.18;100.00;100472.94;5069776;28;19927;-60
2023/03/16 01:46:28;;;;;;;;;;;;;;;2.15;100.00;100470.31;5089087;28;20025;-60
2023/03/16 01:48:56;;;;;;;;;;;;;;;2.23;100.00;100470.34;5090293;28;19984;-61
2023/03/16 01:51:41;;;;;;;;;;;;;;;2.19;100.00;100466.81;5083001;28;19920;-61
2023/03/16 01:54:13;;;;;;;;;;;;;;;2.18;100.00;100459.81;5090016;28;19964;-61
2023/03/16 01:56:50;;;;;;;;;;;;;;;2.16;100.00;100458.94;5089246;28;20066;-61
2023/03/16 01:59:17;;;;;;;;;;;;;;;2.15;100.00;100464.16;5090481;28;19912;-61
2023/03/16 02:01:43;;;;;;;;;;;;;;;2.20;100.00;100462.47;5090351;28;19996;-61
2023/03/16 02:04:31;;;;;;;;;;;;;;;2.17;100.00;100465.94;5088152;28;19924;-61
2023/03/16 02:06:57;;;;;;;;;;;;;;;2.11;100.00;100465.88;5063816;28;19937;-61
2023/03/16 02:09:24;;;;;;;;;;;;;;;2.09;100.00;100458.88;5077196;28;19960;-61
2023/03/16 02:11:50;;;;;;;;;;;;;;;2.04;100.00;100452.72;5089084;28;19943;-61
2023/03/16 02:14:15;;;;;;;;;;;;;;;2.05;100.00;100457.09;5089933;28;20329;-61
2023/03/16 02:16:40;;;;;;;;;;;;;;;2.02;100.00;100460.56;5080906;28;19916;-61
2023/03/16 02:19:08;;;;;;;;;;;;;;;1.96;100.00;100465.75;5069136;28;19948;-61
2023/03/16 02:21:46;;;;;;;;;;;;;;;1.95;100.00;100464.00;5086923;28;19920;-61
2023/03/16 02:24:11;;;;;;;;;;;;;;;1.95;100.00;100461.38;5072673;28;20011;-61
2023/03/16 02:26:43;;;;;;;;;;;;;;;1.89;100.00;100456.09;5071461;28;20031;-61
2023/03/16 02:29:18;;;;;;;;;;;;;;;1.85;100.00;100454.28;5071097;28;19945;-61
2023/03/16 02:31:43;;;;;;;;;;;;;;;1.87;100.00;100455.19;5067327;28;19936;-60
2023/03/16 02:34:10;;;;;;;;;;;;;;;1.92;100.00;100450.88;5067937;28;19955;-61
2023/03/16 02:36:36;;;;;;;;;;;;;;;1.99;100.00;100451.78;5088099;28;19949;-61
2023/03/16 02:39:02;;;;;;;;;;;;;;;2.01;100.00;100450.06;5088613;28;19926;-60
2023/03/16 02:41:27;;;;;;;;;;;;;;;2.02;100.00;100455.34;5088480;28;19923;-61
2023/03/16 02:43:57;;;;;;;;;;;;;;;2.04;100.00;100445.69;5069850;28;19940;-61
2023/03/16 02:46:24;;;;;;;;;;;;;;;2.01;100.00;100443.06;5071342;28;19920;-60
2023/03/16 02:48:56;;;;;;;;;;;;;;;1.98;100.00;100450.91;5089527;28;19935;-61
2023/03/16 02:51:22;;;;;;;;;;;;;;;1.92;100.00;100440.38;5089337;28;19977;-61
2023/03/16 02:53:47;;;;;;;;;;;;;;;1.89;100.00;100437.72;5088210;28;20460;-61
2023/03/16 02:56:12;;;;;;;;;;;;;;;1.89;100.00;100445.59;5088313;28;19916;-61
2023/03/16 02:58:37;;;;;;;;;;;;;;;1.90;100.00;100442.09;5085871;28;20029;-61
2023/03/16 03:01:03;;;;;;;;;;;;;;;1.90;100.00;100444.72;5088820;28;19966;-61
2023/03/16 03:03:28;;;;;;;;;;;;;;;1.90;100.00;100430.72;5087205;28;19930;-61
2023/03/16 03:05:54;;;;;;;;;;;;;;;1.87;100.00;100431.59;5071684;28;20019;-61
2023/03/16 03:08:21;;;;;;;;;;;;;;;1.86;100.00;100429.81;5067913;28;20293;-61
2023/03/16 03:10:46;;;;;;;;;;;;;;;1.83;100.00;100424.53;5085723;28;19943;-61
2023/03/16 03:13:11;;;;;;;;;;;;;;;1.81;100.00;100420.16;5088328;28;19924;-61
2023/03/16 03:15:37;;;;;;;;;;;;;;;1.77;100.00;100414.00;5088421;28;20660;-60
2023/03/16 03:18:03;;;;;;;;;;;;;;;1.76;100.00;100412.28;5087821;28;19957;-61
2023/03/16 03:20:28;;;;;;;;;;;;;;;1.75;100.00;100415.75;5089224;28;19916;-61
2023/03/16 03:22:53;;;;;;;;;;;;;;;1.73;100.00;100406.13;5087794;28;20355;-61
2023/03/16 03:25:19;;;;;;;;;;;;;;;1.73;100.00;100406.13;5088852;28;19970;-60
2023/03/16 03:27:45;;;;;;;;;;;;;;;1.74;100.00;100405.25;5089067;28;19927;-61
2023/03/16 03:30:12;;;;;;;;;;;;;;;1.70;100.00;100406.94;5090262;28;19953;-61
2023/03/16 03:32:38;;;;;;;;;;;;;;;1.67;100.00;100406.94;5092628;28;19950;-61
2023/03/16 03:35:04;;;;;;;;;;;;;;;1.63;100.00;100409.50;5091747;28;19934;-61
2023/03/16 03:37:29;;;;;;;;;;;;;;;1.64;100.00;100406.91;5089107;28;19973;-61
2023/03/16 03:39:55;;;;;;;;;;;;;;;1.60;100.00;100396.38;5091812;28;19947;-61
2023/03/16 03:42:22;;;;;;;;;;;;;;;1.58;100.00;100404.25;5078718;28;19916;-61
2023/03/16 03:44:48;;;;;;;;;;;;;;;1.52;100.00;100398.91;5092205;28;19930;-61
2023/03/16 03:47:13;;;;;;;;;;;;;;;1.54;100.00;100406.78;5092443;28;19928;-61
2023/03/16 03:49:38;;;;;;;;;;;;;;;1.51;100.00;100398.91;5091824;28;19932;-61
2023/03/16 03:52:04;;;;;;;;;;;;;;;1.50;100.00;100397.16;5092426;28;20645;-61
2023/03/16 03:54:29;;;;;;;;;;;;;;;1.53;100.00;100399.81;5091279;28;19960;-61
2023/03/16 03:56:55;;;;;;;;;;;;;;;1.50;100.00;100395.41;5092109;28;19958;-61
2023/03/16 03:59:21;;;;;;;;;;;;;;;1.51;100.00;100389.31;5092316;28;20036;-61
2023/03/16 04:01:47;;;;;;;;;;;;;;;1.51;100.00;100391.03;5087881;28;19935;-61
2023/03/16 04:04:13;;;;;;;;;;;;;;;1.53;100.00;100392.84;5091904;28;19957;-61
2023/03/16 04:06:38;;;;;;;;;;;;;;;1.53;100.00;100389.31;5091961;28;19929;-61
2023/03/16 04:09:04;;;;;;;;;;;;;;;1.50;100.00;100403.25;5090941;28;19927;-61
2023/03/16 04:11:29;;;;;;;;;;;;;;;1.51;100.00;100402.41;5088924;28;19966;-61
2023/03/16 04:13:54;;;;;;;;;;;;;;;1.49;100.00;100390.13;5091728;28;19969;-61
2023/03/16 04:16:20;;;;;;;;;;;;;;;1.54;100.00;100394.56;5090316;28;19973;-61
2023/03/16 04:18:46;;;;;;;;;;;;;;;1.49;100.00;100398.91;5088440;28;19930;-61
2023/03/16 04:21:13;;;;;;;;;;;;;;;1.48;100.00;100389.28;5079616;28;20047;-61
2023/03/16 04:23:38;;;;;;;;;;;;;;;1.48;100.00;100389.28;5091578;28;19932;-61
2023/03/16 04:26:04;;;;;;;;;;;;;;;1.48;100.00;100391.91;5091392;28;19997;-61
2023/03/16 04:28:31;;;;;;;;;;;;;;;1.50;100.00;100392.78;5084235;28;19986;-61
2023/03/16 04:31:00;;;;;;;;;;;;;;;1.49;100.00;100391.03;5088422;28;19941;-61
2023/03/16 04:33:25;;;;;;;;;;;;;;;1.47;100.00;100391.91;5090817;28;19916;-61
2023/03/16 04:35:51;;;;;;;;;;;;;;;1.47;100.00;100390.13;5091714;28;20387;-61
2023/03/16 04:38:16;;;;;;;;;;;;;;;1.52;100.00;100391.06;5090529;28;19930;-61
2023/03/16 04:40:41;;;;;;;;;;;;;;;1.46;100.00;100385.75;5090885;28;20301;-61
2023/03/16 04:43:06;;;;;;;;;;;;;;;1.42;100.00;100386.59;5091535;28;20295;-60
2023/03/16 04:45:32;;;;;;;;;;;;;;;1.41;100.00;100390.09;5090389;28;19946;-60
2023/03/16 04:47:57;;;;;;;;;;;;;;;1.42;100.00;100386.59;5091125;28;19916;-60
2023/03/16 04:50:22;;;;;;;;;;;;;;;1.41;100.00;100387.47;5080925;28;19931;-60
2023/03/16 04:52:48;;;;;;;;;;;;;;;1.35;100.00;100384.78;5090950;28;19983;-60
2023/03/16 04:55:13;;;;;;;;;;;;;;;1.35;100.00;100390.03;5091257;28;19970;-61
2023/03/16 04:57:38;;;;;;;;;;;;;;;1.44;100.00;100379.63;5090246;28;19940;-61
2023/03/16 05:00:20;;;;;;;;;;;;;;;1.54;100.00;100394.56;5091162;28;20048;-60
2023/03/16 05:02:46;;;;;;;;;;;;;;;1.54;100.00;100391.06;5090276;28;19965;-61
2023/03/16 05:05:11;;;;;;;;;;;;;;;1.57;100.00;100388.47;5090913;28;19995;-60
2023/03/16 05:07:36;;;;;;;;;;;;;;;1.51;100.00;100389.31;5091050;28;20302;-61
2023/03/16 05:10:02;;;;;;;;;;;;;;;1.45;100.00;100384.00;5090078;28;19992;-60
2023/03/16 05:12:28;;;;;;;;;;;;;;;1.42;100.00;100389.19;5090597;28;20003;-60
2023/03/16 05:14:53;;;;;;;;;;;;;;;1.39;100.00;100383.94;5090162;28;19933;-60
2023/03/16 05:17:18;;;;;;;;;;;;;;;1.38;100.00;100390.91;5090633;28;19926;-61
2023/03/16 05:19:44;;;;;;;;;;;;;;;1.44;100.00;100382.25;5090408;28;20018;-61
2023/03/16 05:22:09;;;;;;;;;;;;;;;1.52;100.00;100385.81;5089424;28;20054;-61
2023/03/16 05:24:35;;;;;;;;;;;;;;;1.58;100.00;100385.00;5090518;28;19991;-61
2023/03/16 05:27:02;;;;;;;;;;;;;;;1.61;100.00;100380.66;5090003;28;19935;-61
2023/03/16 05:29:28;;;;;;;;;;;;;;;1.66;100.00;100383.31;5090446;28;20437;-61
2023/03/16 05:31:53;;;;;;;;;;;;;;;1.72;100.00;100373.75;5081500;28;19942;-61
2023/03/16 05:34:18;;;;;;;;;;;;;;;1.84;100.00;100368.63;5089130;28;19933;-61
2023/03/16 05:36:43;;;;;;;;;;;;;;;1.85;100.00;100373.00;5088776;28;19933;-61
2023/03/16 05:39:09;;;;;;;;;;;;;;;1.82;100.00;100379.94;5071792;28;20154;-61
2023/03/16 05:41:34;;;;;;;;;;;;;;;1.81;100.00;100373.84;5082922;28;19934;-61
2023/03/16 05:43:59;;;;;;;;;;;;;;;1.76;100.00;100370.31;5089297;28;19933;-61
2023/03/16 05:46:25;;;;;;;;;;;;;;;1.72;100.00;100378.13;5087154;28;19938;-61
2023/03/16 05:48:50;;;;;;;;;;;;;;;1.70;100.00;100378.09;5070535;28;19931;-61
2023/03/16 05:51:15;;;;;;;;;;;;;;;1.72;100.00;100384.25;5068893;28;19985;-60
2023/03/16 05:53:41;;;;;;;;;;;;;;;1.73;100.00;100380.75;5080789;28;19965;-61
2023/03/16 05:56:06;;;;;;;;;;;;;;;1.74;100.00;100379.91;5073858;28;19920;-61
2023/03/16 05:58:32;;;;;;;;;;;;;;;1.77;100.00;100366.81;5083234;28;20079;-60
2023/03/16 06:00:59;;;;;;;;;;;;;;;1.82;100.00;100379.94;5088755;28;20384;-61
2023/03/16 06:03:25;;;;;;;;;;;;;;;1.87;100.00;100378.25;5082737;28;19939;-61
2023/03/16 06:05:50;;;;;;;;;;;;;;;1.91;100.00;100380.91;5077289;28;19959;-61
2023/03/16 06:08:16;;;;;;;;;;;;;;;2.01;100.00;100387.97;5084002;28;19927;-61
2023/03/16 06:10:41;;;;;;;;;;;;;;;2.12;100.00;100386.31;5081167;28;19939;-61
2023/03/16 06:13:06;;;;;;;;;;;;;;;2.23;100.00;100394.25;5082995;28;20031;-61
2023/03/16 06:15:31;;;;;;;;;;;;;;;2.24;100.00;100389.00;5082736;28;20674;-61
2023/03/16 06:17:57;;;;;;;;;;;;;;;2.27;100.00;100382.94;5080197;28;19996;-61
2023/03/16 06:20:22;;;;;;;;;;;;;;;2.35;100.00;100379.47;5081080;28;21173;-61
2023/03/16 06:22:47;;;;;;;;;;;;;;;2.41;100.00;100382.13;5079969;28;19995;-61
2023/03/16 06:25:13;;;;;;;;;;;;;;;2.57;100.00;100376.09;5078727;28;19924;-61
2023/03/16 06:27:39;;;;;;;;;;;;;;;2.67;100.00;100380.50;5076506;28;19960;-61
2023/03/16 06:30:08;;;;;;;;;;;;;;;2.73;100.00;100383.16;5081520;28;19931;-61
2023/03/16 06:32:34;;;;;;;;;;;;;;;2.85;100.00;100381.47;5078669;28;19960;-61
2023/03/16 06:35:01;;;;;;;;;;;;;;;3.20;100.00;100382.44;5084690;28;20302;-61
2023/03/16 06:37:26;;;;;;;;;;;;;;;3.64;100.00;100384.28;5089846;28;19936;-61
2023/03/16 06:39:52;;;;;;;;;;;;;;;3.90;100.00;100381.69;5088631;28;19942;-61
2023/03/16 06:42:18;;;;;;;;;;;;;;;4.29;100.00;100375.50;5089637;28;19923;-61
2023/03/16 06:44:43;;;;;;;;;;;;;;;4.53;100.00;100376.31;5089497;28;20763;-61
2023/03/16 06:47:09;;;;;;;;;;;;;;;4.57;99.73;100372.81;5088992;28;19970;-61
2023/03/16 06:49:34;;;;;;;;;;;;;;;4.48;97.82;100382.50;5089499;28;19929;-61
2023/03/16 06:52:01;;;;;;;;;;;;;;;4.40;96.47;100390.38;5088369;28;19924;-61
2023/03/16 06:54:26;;;;;;;;;;;;;;;4.41;95.59;100386.91;5088471;28;20054;-61
2023/03/16 06:56:51;;;;;;;;;;;;;;;4.38;94.87;100389.53;5089498;28;20015;-61
2023/03/16 06:59:16;;;;;;;;;;;;;;;4.32;95.11;100392.16;5089512;28;19928;-61
2023/03/16 07:01:43;;;;;;;;;;;;;;;4.31;95.17;100390.41;5088391;28;19934;-61
2023/03/16 07:04:09;;;;;;;;;;;;;;;4.38;95.21;100392.19;5075000;28;19991;-61
2023/03/16 07:06:34;;;;;;;;;;;;;;;4.40;95.00;100386.91;5088376;28;19978;-62
2023/03/16 07:09:00;;;;;;;;;;;;;;;4.46;94.75;100398.31;5077099;28;19932;-62
2023/03/16 07:11:25;;;;;;;;;;;;;;;4.47;94.47;100386.88;5085912;28;19947;-62
2023/03/16 07:13:51;;;;;;;;;;;;;;;4.50;94.45;100386.84;5078260;28;19928;-61
2023/03/16 07:16:16;;;;;;;;;;;;;;;4.63;95.29;100385.09;5086225;28;20647;-62
2023/03/16 07:18:43;;;;;;;;;;;;;;;4.72;94.78;100378.03;5090108;28;19916;-61
2023/03/16 07:21:09;;;;;;;;;;;;;;;4.85;93.57;100382.38;5089913;28;19953;-62
2023/03/16 07:23:34;;;;;;;;;;;;;;;5.01;93.29;100381.41;5081001;28;20287;-61
2023/03/16 07:25:59;;;;;;;;;;;;;;;5.15;92.61;100382.25;5081770;28;19967;-61
2023/03/16 07:28:26;;;;;;;;;;;;;;;5.34;92.17;100380.34;5089477;28;20197;-61
2023/03/16 07:30:52;;;;;;;;;;;;;;;5.54;91.80;100382.88;5082685;28;20310;-61
2023/03/16 07:33:17;;;;;;;;;;;;;;;5.70;90.73;100376.63;5078373;28;19938;-61
2023/03/16 07:35:43;;;;;;;;;;;;;;;5.81;89.97;100382.69;5082275;28;19956;-61
2023/03/16 07:38:10;;;;;;;;;;;;;;;6.02;90.36;100375.50;5082092;28;19947;-62
2023/03/16 07:40:36;;;;;;;;;;;;;;;6.53;88.85;100366.19;5088133;28;19958;-62
2023/03/16 07:43:01;;;;;;;;;;;;;;;7.01;85.30;100360.34;5077378;28;20370;-62
2023/03/16 07:45:26;;;;;;;;;;;;;;;7.55;83.83;100370.16;5086347;28;19950;-61
2023/03/16 07:47:52;;;;;;;;;;;;;;;7.90;79.30;100361.66;5070885;28;20017;-61
2023/03/16 07:50:18;;;;;;;;;;;;;;;8.23;77.15;100368.16;5087352;28;19923;-61
2023/03/16 07:52:45;;;;;;;;;;;;;;;8.33;74.22;100365.34;5081167;28;19924;-61
2023/03/16 07:55:10;;;;;;;;;;;;;;;8.48;73.23;100358.91;5087683;28;19959;-61
2023/03/16 07:57:38;;;;;;;;;;;;;;;9.18;73.00;100356.56;5071382;28;19930;-61
2023/03/16 08:00:04;;;;;;;;;;;;;;;9.91;66.64;100356.63;5083452;28;19937;-61
2023/03/16 08:02:29;;;;;;;;;;;;;;;10.21;66.00;100353.22;5086858;28;19920;-61
2023/03/16 08:04:55;;;;;;;;;;;;;;;10.77;63.62;100346.41;5082546;28;19955;-61
2023/03/16 08:07:20;;;;;;;;;;;;;;;11.69;61.79;100351.63;5087897;28;19937;-61
2023/03/16 08:09:45;;;;;;;;;;;;;;;12.17;57.54;100349.13;5089608;28;19922;-61
2023/03/16 08:12:11;;;;;;;;;;;;;;;12.03;57.46;100352.25;5086227;28;19971;-62
2023/03/16 08:14:36;;;;;;;;;;;;;;;12.02;58.09;100357.66;5077358;28;19966;-62
2023/03/16 08:17:02;;;;;;;;;;;;;;;12.61;57.26;100348.47;5087978;28;20483;-61
2023/03/16 08:19:28;;;;;;;;;;;;;;;13.17;55.07;100344.63;5082079;28;19990;-61
2023/03/16 08:21:53;;;;;;;;;;;;;;;13.85;53.25;100332.13;5089811;28;19946;-62
2023/03/16 08:24:19;;;;;;;;;;;;;;;14.02;51.40;100339.44;5072056;28;19980;-61
2023/03/16 08:26:44;;;;;;;;;;;;;;;14.47;50.98;100342.88;5076704;28;20605;-61
2023/03/16 08:29:10;;;;;;;;;;;;;;;14.78;50.15;100358.47;5074740;28;20009;-61
2023/03/16 08:31:35;;;;;;;;;;;;;;;14.33;49.74;100356.84;5083028;28;19945;-61
2023/03/16 08:34:01;;;;;;;;;;;;;;;14.02;51.41;100355.50;5075814;28;20282;-61
2023/03/16 08:36:29;;;;;;;;;;;;;;;13.99;51.96;100351.13;5072899;28;20021;-62
2023/03/16 08:38:54;;;;;;;;;;;;;;;14.04;50.88;100342.91;5090111;28;19935;-61
2023/03/16 08:41:20;;;;;;;;;;;;;;;14.01;51.52;100359.09;5089816;28;19989;-62
2023/03/16 08:43:45;;;;;;;;;;;;;;;14.30;51.92;100350.72;5091122;28;20411;-61
2023/03/16 08:46:12;;;;;;;;;;;;;;;14.36;52.73;100362.03;5090826;28;19989;-62
2023/03/16 08:48:39;;;;;;;;;;;;;;;14.42;52.37;100350.22;5089131;28;19916;-61
2023/03/16 08:51:08;;;;;;;;;;;;;;;14.76;52.70;100344.28;5089305;28;19931;-62
2023/03/16 08:53:33;;;;;;;;;;;;;;;14.88;50.95;100328.53;5089284;28;19924;-61
2023/03/16 08:56:03;;;;;;;;;;;;;;;14.63;48.53;100327.88;5088327;28;19936;-61
2023/03/16 08:58:31;;;;;;;;;;;;;;;14.00;49.44;100325.25;5089139;28;19964;-61
2023/03/16 09:00:56;;;;;;;;;;;;;;;13.91;52.63;100330.97;5084650;28;20366;-61
2023/03/16 09:03:21;;;;;;;;;;;;;;;13.94;51.62;100323.69;5090092;28;20021;-61
2023/03/16 09:05:48;;;;;;;;;;;;;;;13.16;53.52;100330.41;5088974;28;19920;-61
2023/03/16 09:08:13;;;;;;;;;;;;;;;13.46;53.43;100322.16;5090696;28;19916;-61
2023/03/16 09:10:38;;;;;;;;;;;;;;;13.99;53.03;100320.81;5090756;28;19968;-61
2023/03/16 09:13:04;;;;;;;;;;;;;;;13.88;53.04;100315.06;5089275;28;20661;-61
2023/03/16 09:15:30;;;;;;;;;;;;;;;14.11;54.36;100312.28;5090741;28;20026;-61
2023/03/16 09:17:58;;;;;;;;;;;;;;;14.46;52.03;100306.34;5090745;28;19992;-61
2023/03/16 09:20:24;;;;;;;;;;;;;;;14.57;53.20;100301.38;5089284;28;20003;-61
2023/03/16 09:22:50;;;;;;;;;;;;;;;14.51;51.11;100307.00;5090263;28;19934;-61
2023/03/16 09:25:15;;;;;;;;;;;;;;;14.31;50.83;100309.69;5089199;28;19957;-61
2023/03/16 09:27:41;;;;;;;;;;;;;;;14.27;50.85;100310.72;5089949;28;19933;-61
2023/03/16 09:30:07;;;;;;;;;;;;;;;14.37;51.68;100310.28;5089298;28;19938;-62
2023/03/16 09:32:32;;;;;;;;;;;;;;;14.30;50.64;100307.91;5083881;28;19924;-61
2023/03/16 09:34:58;;;;;;;;;;;;;;;14.78;51.65;100300.41;5081943;28;19942;-62
2023/03/16 09:37:24;;;;;;;;;;;;;;;15.07;50.59;100302.66;5088695;28;19920;-62
2023/03/16 09:39:50;;;;;;;;;;;;;;;15.55;51.10;100299.50;5090326;28;20018;-62
2023/03/16 09:42:36;;;;;;;;;;;;;;;15.66;47.45;100300.72;5089224;28;19916;-62
2023/03/16 09:45:01;;;;;;;;;;;;;;;16.07;49.59;100300.47;5081678;28;20402;-62
2023/03/16 09:47:29;;;;;;;;;;;;;;;16.23;49.26;100293.34;5070218;28;19933;-62
2023/03/16 09:49:59;;;;;;;;;;;;;;;16.21;49.15;100296.13;5086951;28;19932;-63
2023/03/16 09:52:33;;;;;;;;;;;;;;;16.07;48.10;100293.28;5089042;28;19923;-62
2023/03/16 09:55:14;;;;;;;;;;;;;;;16.24;48.64;100298.69;5089064;28;19966;-62
2023/03/16 09:57:43;;;;;;;;;;;;;;;16.42;48.08;100294.16;5087923;28;21731;-62
2023/03/16 10:00:22;;;;;;;;;;;;;;;16.53;45.78;100289.13;5084998;28;19931;-62
2023/03/16 10:02:48;;;;;;;;;;;;;;;16.84;47.34;100278.50;5067479;28;19995;-62
2023/03/16 10:05:15;;;;;;;;;;;;;;;17.13;45.68;100273.25;5090928;28;20118;-62
2023/03/16 10:08:00;;;;;;;;;;;;;;;17.55;44.80;100270.03;5089841;28;19942;-62
2023/03/16 10:10:45;;;;;;;;;;;;;;;17.31;42.94;100267.81;5089194;28;20032;-62
2023/03/16 10:13:29;;;;;;;;;;;;;;;17.40;43.67;100265.47;5069573;28;19978;-62
2023/03/16 10:15:55;;;;;;;;;;;;;;;17.89;43.31;100267.13;5069404;28;20000;-62
2023/03/16 10:18:27;;;;;;;;;;;;;;;17.89;43.67;100261.75;5087425;28;19927;-62
2023/03/16 10:20:54;;;;;;;;;;;;;;;17.94;43.29;100256.97;5088193;28;20024;-62
2023/03/16 10:23:21;;;;;;;;;;;;;;;18.63;42.56;100256.41;5087894;28;19931;-62
2023/03/16 10:25:48;;;;;;;;;;;;;;;19.27;40.27;100243.31;5083796;28;19924;-62
2023/03/16 10:28:20;;;;;;;;;;;;;;;19.31;41.31;100244.84;5088849;28;19930;-62
2023/03/16 10:30:47;;;;;;;;;;;;;;;19.57;39.88;100253.00;5086787;28;20003;-63
2023/03/16 10:33:25;;;;;;;;;;;;;;;19.17;39.19;100242.16;5088109;28;19927;-62
2023/03/16 10:35:56;;;;;;;;;;;;;;;19.22;40.84;100245.44;5089482;28;19916;-62
2023/03/16 10:38:29;;;;;;;;;;;;;;;19.44;41.81;100230.47;5088659;28;20410;-63
2023/03/16 10:40:56;;;;;;;;;;;;;;;19.35;42.02;100238.31;5090507;28;19970;-62
2023/03/16 10:43:22;;;;;;;;;;;;;;;19.35;40.50;100243.72;5092991;28;19939;-62
2023/03/16 10:45:47;;;;;;;;;;;;;;;19.35;40.54;100235.63;5091876;28;20002;-62
2023/03/16 10:48:14;;;;;;;;;;;;;;;19.92;38.96;100237.16;5092659;28;19943;-63
2023/03/16 10:50:40;;;;;;;;;;;;;;;19.96;39.61;100238.69;5092704;28;19912;-63
2023/03/16 10:53:15;;;;;;;;;;;;;;;19.33;39.05;100229.44;5091545;28;19996;-62
2023/03/16 10:55:42;;;;;;;;;;;;;;;19.88;40.51;100242.88;5092548;28;20020;-63
2023/03/16 10:58:08;;;;;;;;;;;;;;;20.14;38.18;100242.84;5075269;28;20007;-62
2023/03/16 11:00:40;;;;;;;;;;;;;;;20.45;39.88;100239.81;5079270;28;20041;-62
2023/03/16 11:03:21;;;;;;;;;;;;;;;20.28;37.97;100229.28;5092460;28;19932;-62
2023/03/16 11:05:47;;;;;;;;;;;;;;;19.95;37.26;100236.94;5092173;28;20072;-62
2023/03/16 11:08:14;;;;;;;;;;;;;;;19.48;39.10;100225.75;5091759;28;20364;-62
2023/03/16 11:10:59;;;;;;;;;;;;;;;19.01;38.64;100219.84;5092518;28;19916;-62
2023/03/16 11:13:33;;;;;;;;;;;;;;;18.68;39.49;100224.66;5086293;28;19934;-62
2023/03/16 11:16:01;;;;;;;;;;;;;;;18.48;38.71;100217.81;5077357;28;19955;-63
2023/03/16 11:18:27;;;;;;;;;;;;;;;18.71;40.27;100222.66;5092176;28;19953;-63
2023/03/16 11:20:54;;;;;;;;;;;;;;;18.98;39.04;100214.63;5092465;28;19912;-63
2023/03/16 11:23:24;;;;;;;;;;;;;;;19.54;38.43;100215.41;5091861;28;20375;-63
2023/03/16 11:25:52;;;;;;;;;;;;;;;19.79;38.74;100203.84;5082508;28;20067;-62
2023/03/16 11:28:37;;;;;;;;;;;;;;;19.76;37.49;100209.47;5072444;28;20386;-63
2023/03/16 11:31:02;;;;;;;;;;;;;;;19.32;37.27;100208.84;5078289;28;19921;-63
2023/03/16 11:33:29;;;;;;;;;;;;;;;19.57;38.98;100192.78;5072658;28;19946;-62
2023/03/16 11:35:58;;;;;;;;;;;;;;;19.90;36.17;100203.97;5079164;28;19991;-63
2023/03/16 11:38:35;;;;;;;;;;;;;;;20.31;37.70;100206.59;5092612;28;19950;-63
2023/03/16 11:41:20;;;;;;;;;;;;;;;20.47;36.74;100200.03;5091842;28;19927;-62
2023/03/16 11:43:51;;;;;;;;;;;;;;;20.43;37.71;100201.19;5092707;28;19928;-62
2023/03/16 11:46:31;;;;;;;;;;;;;;;20.55;36.96;100188.66;5086390;28;19953;-63
2023/03/16 11:49:04;;;;;;;;;;;;;;;20.99;35.76;100189.06;5072234;28;20378;-62
2023/03/16 11:51:29;;;;;;;;;;;;;;;21.11;35.26;100185.50;5073774;28;19979;-63
2023/03/16 11:53:55;;;;;;;;;;;;;;;21.32;34.93;100185.75;5088665;28;20746;-62
2023/03/16 11:56:43;;;;;;;;;;;;;;;21.53;35.20;100173.34;5088853;28;19916;-63
2023/03/16 11:59:11;;;;;;;;;;;;;;;21.12;34.43;100170.13;5090827;28;19922;-63
2023/03/16 12:01:48;;;;;;;;;;;;;;;21.33;35.68;100155.03;5074792;28;19950;-63
2023/03/16 12:04:23;;;;;;;;;;;;;;;21.11;34.04;100158.44;5079397;28;19931;-63
2023/03/16 12:06:51;;;;;;;;;;;;;;;21.33;34.78;100158.59;5090466;28;20396;-63
2023/03/16 12:09:27;;;;;;;;;;;;;;;21.41;34.18;100147.19;5090915;28;19920;-64
2023/03/16 12:11:56;;;;;;;;;;;;;;;21.03;33.41;100157.28;5090441;28;19953;-63
2023/03/16 12:14:25;;;;;;;;;;;;;;;21.53;35.23;100157.09;5074172;28;19932;-63
2023/03/16 12:17:01;;;;;;;;;;;;;;;22.03;33.16;100156.84;5082745;28;20355;-63
2023/03/16 12:19:26;;;;;;;;;;;;;;;21.87;32.43;100149.03;5091619;28;20367;-63
2023/03/16 12:22:00;;;;;;;;;;;;;;;21.68;33.06;100153.25;5091001;28;19938;-63
2023/03/16 12:24:28;;;;;;;;;;;;;;;22.04;34.11;100145.03;5073527;28;19959;-63
2023/03/16 12:26:53;;;;;;;;;;;;;;;22.60;32.72;100141.44;5091687;28;20338;-63
2023/03/16 12:29:19;;;;;;;;;;;;;;;22.52;31.30;100133.03;5087720;28;19934;-63
2023/03/16 12:32:01;;;;;;;;;;;;;;;22.30;32.49;100133.03;5092014;28;19927;-63
2023/03/16 12:34:26;;;;;;;;;;;;;;;22.13;31.37;100130.75;5087741;28;19936;-63
2023/03/16 12:36:56;;;;;;;;;;;;;;;21.43;32.77;100119.00;5075042;28;19927;-63
2023/03/16 12:39:22;;;;;;;;;;;;;;;20.79;33.46;100117.47;5091430;28;19935;-63